Blue Galaxy — SWDA — position and weather

sailwx.info

Track history (hours):
 
Tides and Currents Weather Stations Pressure Air Temp Water Temp Dewpoint Dewpoint Depression Visibility Wind Speed Wind Dir Waves Ship Positions

Blue Galaxy

Last reported at 2015-May-24 20:14 UTC. Time now 2015-May-25 17:40 UTC.
Position N 37°25' E 023°45'.

Length 192 m; draft 6.7 m.

Type: Passenger vessel. MMSI: 239672000.

Date/timePositionNaut miles runAvg speedWind from/ knotsBaromVisibWave heightAir tempDewpointWater temp
2015-May-24 20:14N 37°25' E 023°45'1420.3
2015-May-24 19:34N 37°39' E 023°42'1818.1
2015-May-24 18:33N 37°56' E 023°38'1 0.6
2015-May-24 17:33N 37°57' E 023°38'0 0.0
2015-May-24 16:32N 37°57' E 023°38'0 0.0
2015-May-24 15:29N 37°57' E 023°38'0 0.0
2015-May-24 14:32N 37°57' E 023°38'0 0.0
2015-May-24 13:32N 37°57' E 023°38'0 0.0
2015-May-24 12:32N 37°57' E 023°38'0 0.0
2015-May-24 11:32N 37°57' E 023°38'0 0.0
2015-May-24 10:32N 37°57' E 023°38'0 0.0
2015-May-24 09:32N 37°57' E 023°38'0 0.0
2015-May-24 08:32N 37°57' E 023°38'0 0.0
2015-May-24 07:32N 37°57' E 023°38'0 0.0
2015-May-24 06:32N 37°57' E 023°38'0 0.0
2015-May-24 05:32N 37°57' E 023°38'0 0.0
2015-May-24 04:32N 37°57' E 023°38'0 0.0
2015-May-24 03:29N 37°57' E 023°38'0 0.3
2015-May-24 02:33N 37°57' E 023°38'1616.0
2015-May-24 01:33N 37°42' E 023°45'2019.6
2015-May-24 00:32N 37°22' E 023°49'6420.0
2015-May-23 21:21N 36°19' E 024°03'2020.0
2015-May-23 20:21N 35°60' E 024°08'1619.8
2015-May-23 19:33N 35°44' E 024°11'15 4.7
2015-May-23 16:17N 35°29' E 024°05'10 0.7
2015-May-23 01:33N 35°38' E 024°12'2020.3
2015-May-23 00:33N 35°58' E 024°06'2019.9
2015-May-22 23:33N 36°17' E 024°03'6719.9
2015-May-22 20:10N 37°24' E 023°46'1219.9
2015-May-22 19:34N 37°35' E 023°43'2019.7
2015-May-22 18:34N 37°55' E 023°37'3 2.5
2015-May-22 17:34N 37°57' E 023°38'0 0.0
2015-May-22 16:34N 37°57' E 023°38'0 0.0
2015-May-22 15:34N 37°57' E 023°38'0 0.0
2015-May-22 14:34N 37°57' E 023°38'0 0.0
2015-May-22 13:34N 37°57' E 023°38'0 0.0
2015-May-22 12:33N 37°57' E 023°38'0 0.0
2015-May-22 11:32N 37°57' E 023°38'0 0.0
2015-May-22 10:34N 37°57' E 023°38'0 0.0
2015-May-22 09:33N 37°57' E 023°38'0 0.0
2015-May-22 08:34N 37°57' E 023°38'0 0.0
2015-May-22 07:34N 37°57' E 023°38'0 0.0
2015-May-22 06:34N 37°57' E 023°38'0 0.0
2015-May-22 05:33N 37°57' E 023°38'0 0.0
2015-May-22 04:33N 37°57' E 023°38'0 0.0
2015-May-22 03:34N 37°57' E 023°38'0 0.0
2015-May-22 02:34N 37°57' E 023°38'1111.1
2015-May-22 01:34N 37°46' E 023°42'2020.0
2015-May-22 00:33N 37°27' E 023°48'2020.2
2015-May-21 23:34N 37°06' E 023°49'2019.6
2015-May-21 22:33N 36°50' E 024°02'2019.9
2015-May-21 21:33N 36°30' E 024°01'2019.7
2015-May-21 20:32N 36°10' E 024°07'2020.3
2015-May-21 19:33N 35°50' E 024°10'2120.6
2015-May-21 18:32N 35°30' E 024°12'34 1.9
2015-May-21 00:16N 36°03' E 024°09'3920.3
2015-May-20 22:20N 36°42' E 023°60'5620.2
2015-May-20 19:33N 37°37' E 023°43'1919.5
2015-May-20 18:34N 37°55' E 023°37'2 1.8
2015-May-20 17:33N 37°57' E 023°38'0 0.0
2015-May-20 16:32N 37°57' E 023°38'0 0.0
2015-May-20 15:32N 37°57' E 023°38'0 0.0
2015-May-20 14:32N 37°57' E 023°38'0 0.0
2015-May-20 13:32N 37°57' E 023°38'0 0.0
2015-May-20 12:32N 37°57' E 023°38'0 0.0
2015-May-20 11:32N 37°57' E 023°38'0 0.0
2015-May-20 10:29N 37°57' E 023°38'0 0.0
2015-May-20 09:32N 37°57' E 023°38'0 0.0
2015-May-20 08:26N 37°57' E 023°38'0 0.0
2015-May-20 07:32N 37°57' E 023°38'0 0.0
2015-May-20 06:33N 37°57' E 023°38'0 0.0
2015-May-20 05:33N 37°57' E 023°38'0 0.0
2015-May-20 04:33N 37°57' E 023°38'0 0.0
2015-May-20 03:33N 37°57' E 023°38'0 0.1
2015-May-20 02:34N 37°57' E 023°38'1313.2
2015-May-20 01:34N 37°44' E 023°43'13610.4
2015-May-19 12:28N 35°29' E 024°05'0 0.0
2015-May-19 10:04N 35°29' E 024°05'4 0.5
2015-May-19 02:13N 35°29' E 024°09'1217.4
2015-May-19 01:33N 35°40' E 024°12'2520.1
2015-May-19 00:17N 36°05' E 024°06'1519.8
2015-May-18 23:33N 36°20' E 024°03'2119.9
2015-May-18 22:30N 36°40' E 023°58'4020.3
2015-May-18 20:33N 37°19' E 023°47'1919.5
2015-May-18 19:33N 37°38' E 023°42'1918.8
2015-May-18 18:34N 37°56' E 023°37'1 1.2
2015-May-18 17:32N 37°57' E 023°38'0 0.0
2015-May-18 16:32N 37°57' E 023°38'0 0.0
2015-May-18 15:32N 37°57' E 023°38'0 0.0
2015-May-18 14:32N 37°57' E 023°38'0 0.0
2015-May-18 13:32N 37°57' E 023°38'0 0.0
2015-May-18 12:32N 37°57' E 023°38'0 0.0
2015-May-18 11:32N 37°57' E 023°38'0 0.0
2015-May-18 10:29N 37°57' E 023°38'0 0.0
2015-May-18 09:32N 37°57' E 023°38'0 0.0
2015-May-18 08:29N 37°57' E 023°38'0 0.0
2015-May-18 07:26N 37°57' E 023°38'0 0.0
2015-May-18 06:32N 37°57' E 023°38'0 0.0
2015-May-18 05:29N 37°57' E 023°38'0 0.0
2015-May-18 04:32N 37°57' E 023°38'0 0.0
2015-May-18 03:32N 37°57' E 023°38'0 0.0
2015-May-18 02:33N 37°57' E 023°38'1111.3
2015-May-18 01:33N 37°46' E 023°42'1817.6
2015-May-18 00:33N 37°29' E 023°49'1919.4
2015-May-17 23:33N 37°10' E 023°49'2019.6
2015-May-17 22:33N 36°52' E 024°00'2120.2
2015-May-17 21:32N 36°32' E 024°04'2020.4
2015-May-17 20:33N 36°12' E 024°07'2120.8
2015-May-17 19:33N 35°51' E 024°10'2020.3
2015-May-17 18:33N 35°31' E 024°12'5 0.3
2015-May-17 02:12N 35°29' E 024°07'1116.7
2015-May-17 01:33N 35°35' E 024°18'2019.9
2015-May-17 00:33N 35°55' E 024°13'2020.0
2015-May-16 23:32N 36°14' E 024°07'2220.4
2015-May-16 22:27N 36°36' E 024°03'2420.2
2015-May-16 21:16N 36°60' E 023°58'1520.4
2015-May-16 20:33N 37°14' E 023°52'2019.9
2015-May-16 19:33N 37°32' E 023°44'2019.8
2015-May-16 18:33N 37°51' E 023°36'6 5.9
2015-May-16 17:31N 37°57' E 023°38'0 0.0
2015-May-16 16:31N 37°57' E 023°38'0 0.0
2015-May-16 15:28N 37°57' E 023°38'0 0.0
2015-May-16 14:22N 37°57' E 023°38'0 0.0
2015-May-16 13:31N 37°57' E 023°38'0 0.0
2015-May-16 12:31N 37°57' E 023°38'0 0.0
2015-May-16 11:31N 37°57' E 023°38'0 0.0
2015-May-16 10:28N 37°57' E 023°38'0 0.0
2015-May-16 09:31N 37°57' E 023°38'0 0.0
2015-May-16 08:28N 37°57' E 023°38'0 0.0
2015-May-16 07:31N 37°57' E 023°38'0 0.0
2015-May-16 06:31N 37°57' E 023°38'0 0.0
2015-May-16 05:28N 37°57' E 023°38'0 0.0
2015-May-16 04:33N 37°57' E 023°38'0 0.0
2015-May-16 03:33N 37°57' E 023°38'0 0.0
2015-May-16 02:33N 37°57' E 023°38'1211.9
2015-May-16 01:33N 37°46' E 023°43'1918.5
2015-May-16 00:33N 37°27' E 023°48'2120.1
2015-May-15 23:31N 37°07' E 023°49'5920.0
2015-May-15 20:33N 36°09' E 024°06'2020.5
2015-May-15 19:33N 35°49' E 024°09'1919.5
2015-May-15 18:33N 35°29' E 024°11'20 1.2
2015-May-15 01:17N 35°49' E 024°10'2120.0
2015-May-15 00:14N 36°10' E 024°05'1420.0
2015-May-14 23:33N 36°23' E 024°02'2820.3
2015-May-14 22:11N 36°51' E 023°56'1520.3
2015-May-14 21:26N 37°05' E 023°51'2220.3
2015-May-14 20:21N 37°27' E 023°46'  
Track history (hours):
 
Tides and Currents Weather Stations Pressure Air Temp Water Temp Dewpoint Dewpoint Depression Visibility Wind Speed Wind Dir Waves Ship Positions

Blue Galaxy

Last reported at 2015-May-24 20:14 UTC. Time now 2015-May-25 17:40 UTC.
Position N 37°25' E 023°45'.

Length 192 m; draft 6.7 m.

Type: Passenger vessel. MMSI: 239672000.

Date/timePositionNaut miles runAvg speedWind from/ knotsBaromVisibWave heightAir tempDewpointWater temp
2015-May-24 20:14N 37°25' E 023°45'1420.3
2015-May-24 19:34N 37°39' E 023°42'1818.1
2015-May-24 18:33N 37°56' E 023°38'1 0.6
2015-May-24 17:33N 37°57' E 023°38'0 0.0
2015-May-24 16:32N 37°57' E 023°38'0 0.0
2015-May-24 15:29N 37°57' E 023°38'0 0.0
2015-May-24 14:32N 37°57' E 023°38'0 0.0
2015-May-24 13:32N 37°57' E 023°38'0 0.0
2015-May-24 12:32N 37°57' E 023°38'0 0.0
2015-May-24 11:32N 37°57' E 023°38'0 0.0
2015-May-24 10:32N 37°57' E 023°38'0 0.0
2015-May-24 09:32N 37°57' E 023°38'0 0.0
2015-May-24 08:32N 37°57' E 023°38'0 0.0
2015-May-24 07:32N 37°57' E 023°38'0 0.0
2015-May-24 06:32N 37°57' E 023°38'0 0.0
2015-May-24 05:32N 37°57' E 023°38'0 0.0
2015-May-24 04:32N 37°57' E 023°38'0 0.0
2015-May-24 03:29N 37°57' E 023°38'0 0.3
2015-May-24 02:33N 37°57' E 023°38'1616.0
2015-May-24 01:33N 37°42' E 023°45'2019.6
2015-May-24 00:32N 37°22' E 023°49'6420.0
2015-May-23 21:21N 36°19' E 024°03'2020.0
2015-May-23 20:21N 35°60' E 024°08'1619.8
2015-May-23 19:33N 35°44' E 024°11'15 4.7
2015-May-23 16:17N 35°29' E 024°05'10 0.7
2015-May-23 01:33N 35°38' E 024°12'2020.3
2015-May-23 00:33N 35°58' E 024°06'2019.9
2015-May-22 23:33N 36°17' E 024°03'6719.9
2015-May-22 20:10N 37°24' E 023°46'1219.9
2015-May-22 19:34N 37°35' E 023°43'2019.7
2015-May-22 18:34N 37°55' E 023°37'3 2.5
2015-May-22 17:34N 37°57' E 023°38'0 0.0
2015-May-22 16:34N 37°57' E 023°38'0 0.0
2015-May-22 15:34N 37°57' E 023°38'0 0.0
2015-May-22 14:34N 37°57' E 023°38'0 0.0
2015-May-22 13:34N 37°57' E 023°38'0 0.0
2015-May-22 12:33N 37°57' E 023°38'0 0.0
2015-May-22 11:32N 37°57' E 023°38'0 0.0
2015-May-22 10:34N 37°57' E 023°38'0 0.0
2015-May-22 09:33N 37°57' E 023°38'0 0.0
2015-May-22 08:34N 37°57' E 023°38'0 0.0
2015-May-22 07:34N 37°57' E 023°38'0 0.0
2015-May-22 06:34N 37°57' E 023°38'0 0.0
2015-May-22 05:33N 37°57' E 023°38'0 0.0
2015-May-22 04:33N 37°57' E 023°38'0 0.0
2015-May-22 03:34N 37°57' E 023°38'0 0.0
2015-May-22 02:34N 37°57' E 023°38'1111.1
2015-May-22 01:34N 37°46' E 023°42'2020.0
2015-May-22 00:33N 37°27' E 023°48'2020.2
2015-May-21 23:34N 37°06' E 023°49'2019.6
2015-May-21 22:33N 36°50' E 024°02'2019.9
2015-May-21 21:33N 36°30' E 024°01'2019.7
2015-May-21 20:32N 36°10' E 024°07'2020.3
2015-May-21 19:33N 35°50' E 024°10'2120.6
2015-May-21 18:32N 35°30' E 024°12'34 1.9
2015-May-21 00:16N 36°03' E 024°09'3920.3
2015-May-20 22:20N 36°42' E 023°60'5620.2
2015-May-20 19:33N 37°37' E 023°43'1919.5
2015-May-20 18:34N 37°55' E 023°37'2 1.8
2015-May-20 17:33N 37°57' E 023°38'0 0.0
2015-May-20 16:32N 37°57' E 023°38'0 0.0
2015-May-20 15:32N 37°57' E 023°38'0 0.0
2015-May-20 14:32N 37°57' E 023°38'0 0.0
2015-May-20 13:32N 37°57' E 023°38'0 0.0
2015-May-20 12:32N 37°57' E 023°38'0 0.0
2015-May-20 11:32N 37°57' E 023°38'0 0.0
2015-May-20 10:29N 37°57' E 023°38'0 0.0
2015-May-20 09:32N 37°57' E 023°38'0 0.0
2015-May-20 08:26N 37°57' E 023°38'0 0.0
2015-May-20 07:32N 37°57' E 023°38'0 0.0
2015-May-20 06:33N 37°57' E 023°38'0 0.0
2015-May-20 05:33N 37°57' E 023°38'0 0.0
2015-May-20 04:33N 37°57' E 023°38'0 0.0
2015-May-20 03:33N 37°57' E 023°38'0 0.1
2015-May-20 02:34N 37°57' E 023°38'1313.2
2015-May-20 01:34N 37°44' E 023°43'13610.4
2015-May-19 12:28N 35°29' E 024°05'0 0.0
2015-May-19 10:04N 35°29' E 024°05'4 0.5
2015-May-19 02:13N 35°29' E 024°09'1217.4
2015-May-19 01:33N 35°40' E 024°12'2520.1
2015-May-19 00:17N 36°05' E 024°06'1519.8
2015-May-18 23:33N 36°20' E 024°03'2119.9
2015-May-18 22:30N 36°40' E 023°58'4020.3
2015-May-18 20:33N 37°19' E 023°47'1919.5
2015-May-18 19:33N 37°38' E 023°42'1918.8
2015-May-18 18:34N 37°56' E 023°37'1 1.2
2015-May-18 17:32N 37°57' E 023°38'0 0.0
2015-May-18 16:32N 37°57' E 023°38'0 0.0
2015-May-18 15:32N 37°57' E 023°38'0 0.0
2015-May-18 14:32N 37°57' E 023°38'0 0.0
2015-May-18 13:32N 37°57' E 023°38'0 0.0
2015-May-18 12:32N 37°57' E 023°38'0 0.0
2015-May-18 11:32N 37°57' E 023°38'0 0.0
2015-May-18 10:29N 37°57' E 023°38'0 0.0
2015-May-18 09:32N 37°57' E 023°38'0 0.0
2015-May-18 08:29N 37°57' E 023°38'0 0.0
2015-May-18 07:26N 37°57' E 023°38'0 0.0
2015-May-18 06:32N 37°57' E 023°38'0 0.0
2015-May-18 05:29N 37°57' E 023°38'0 0.0
2015-May-18 04:32N 37°57' E 023°38'0 0.0
2015-May-18 03:32N 37°57' E 023°38'0 0.0
2015-May-18 02:33N 37°57' E 023°38'1111.3
2015-May-18 01:33N 37°46' E 023°42'1817.6
2015-May-18 00:33N 37°29' E 023°49'1919.4
2015-May-17 23:33N 37°10' E 023°49'2019.6
2015-May-17 22:33N 36°52' E 024°00'2120.2
2015-May-17 21:32N 36°32' E 024°04'2020.4
2015-May-17 20:33N 36°12' E 024°07'2120.8
2015-May-17 19:33N 35°51' E 024°10'2020.3
2015-May-17 18:33N 35°31' E 024°12'5 0.3
2015-May-17 02:12N 35°29' E 024°07'1116.7
2015-May-17 01:33N 35°35' E 024°18'2019.9
2015-May-17 00:33N 35°55' E 024°13'2020.0
2015-May-16 23:32N 36°14' E 024°07'2220.4
2015-May-16 22:27N 36°36' E 024°03'2420.2
2015-May-16 21:16N 36°60' E 023°58'1520.4
2015-May-16 20:33N 37°14' E 023°52'2019.9
2015-May-16 19:33N 37°32' E 023°44'2019.8
2015-May-16 18:33N 37°51' E 023°36'6 5.9
2015-May-16 17:31N 37°57' E 023°38'0 0.0
2015-May-16 16:31N 37°57' E 023°38'0 0.0
2015-May-16 15:28N 37°57' E 023°38'0 0.0
2015-May-16 14:22N 37°57' E 023°38'0 0.0
2015-May-16 13:31N 37°57' E 023°38'0 0.0
2015-May-16 12:31N 37°57' E 023°38'0 0.0
2015-May-16 11:31N 37°57' E 023°38'0 0.0
2015-May-16 10:28N 37°57' E 023°38'0 0.0
2015-May-16 09:31N 37°57' E 023°38'0 0.0
2015-May-16 08:28N 37°57' E 023°38'0 0.0
2015-May-16 07:31N 37°57' E 023°38'0 0.0
2015-May-16 06:31N 37°57' E 023°38'0 0.0
2015-May-16 05:28N 37°57' E 023°38'0 0.0
2015-May-16 04:33N 37°57' E 023°38'0 0.0
2015-May-16 03:33N 37°57' E 023°38'0 0.0
2015-May-16 02:33N 37°57' E 023°38'1211.9
2015-May-16 01:33N 37°46' E 023°43'1918.5
2015-May-16 00:33N 37°27' E 023°48'2120.1
2015-May-15 23:31N 37°07' E 023°49'5920.0
2015-May-15 20:33N 36°09' E 024°06'2020.5
2015-May-15 19:33N 35°49' E 024°09'1919.5
2015-May-15 18:33N 35°29' E 024°11'20 1.2
2015-May-15 01:17N 35°49' E 024°10'2120.0
2015-May-15 00:14N 36°10' E 024°05'1420.0
2015-May-14 23:33N 36°23' E 024°02'2820.3
2015-May-14 22:11N 36°51' E 023°56'1520.3
2015-May-14 21:26N 37°05' E 023°51'2220.3
2015-May-14 20:21N 37°27' E 023°46'  

Dump ship's entire track history